Time;durP1;ratioP1;P1;durP2;ratioP2;P2;SDS_P1;SDS_P2;PMS_P1;PMS_P2;Temp;Humidity;BMP_temperature;BMP_pressure;BME280_temperature;BME280_humidity;BME280_pressure;Samples;Min_cycle;Max_cycle;Signal;HPM_P1;HPM_P2
2023/08/12 00:00:16;;;;;;;1999.90;999.90;;;18.10;99.90;;;;;;5093256;28;20046;-75
2023/08/12 00:02:43;;;;;;;1999.90;999.90;;;18.00;99.90;;;;;;5094957;28;20090;-75
2023/08/12 00:05:11;;;;;;;1999.90;999.90;;;18.00;99.90;;;;;;5093888;28;20044;-75
2023/08/12 00:07:36;;;;;;;1999.90;999.90;;;18.00;99.90;;;;;;5094455;28;20036;-74
2023/08/12 00:10:04;;;;;;;1999.90;999.90;;;17.90;99.90;;;;;;5094873;28;20483;-74
2023/08/12 00:12:31;;;;;;;1999.90;999.90;;;17.80;99.90;;;;;;5094668;28;20044;-74
2023/08/12 00:14:56;;;;;;;1999.90;999.90;;;17.80;99.90;;;;;;5094107;28;20024;-74
2023/08/12 00:17:22;;;;;;;1999.90;999.90;;;17.80;99.90;;;;;;5094544;28;20058;-74
2023/08/12 00:19:48;;;;;;;1999.90;999.90;;;17.80;99.90;;;;;;5094544;28;20044;-74
2023/08/12 00:22:13;;;;;;;1999.90;999.90;;;17.80;99.90;;;;;;5094794;28;20041;-74
2023/08/12 00:24:39;;;;;;;1999.90;999.90;;;17.90;99.90;;;;;;5094260;28;20033;-74
2023/08/12 00:27:06;;;;;;;1999.90;999.90;;;17.90;99.90;;;;;;5094857;28;20116;-74
2023/08/12 00:29:32;;;;;;;1999.90;999.90;;;17.90;99.90;;;;;;5094335;28;20025;-75
2023/08/12 00:32:01;;;;;;;1999.90;999.90;;;17.90;99.90;;;;;;5094606;28;20041;-75
2023/08/12 00:34:27;;;;;;;1999.90;999.90;;;17.80;99.90;;;;;;5092547;28;20427;-75
2023/08/12 00:36:52;;;;;;;1999.90;999.90;;;17.80;99.90;;;;;;5094310;28;20075;-75
2023/08/12 00:39:18;;;;;;;1999.90;999.90;;;17.80;99.90;;;;;;5094205;28;20432;-75
2023/08/12 00:41:44;;;;;;;1999.90;999.90;;;17.80;99.90;;;;;;5092874;28;20039;-74
2023/08/12 00:44:10;;;;;;;1999.90;999.90;;;17.70;99.90;;;;;;5094203;28;20024;-74
2023/08/12 00:46:38;;;;;;;1999.90;999.90;;;17.70;99.90;;;;;;5094125;28;20512;-75
2023/08/12 00:49:04;;;;;;;1999.90;999.90;;;17.70;99.90;;;;;;5094247;28;20158;-74
2023/08/12 00:51:30;;;;;;;1999.90;999.90;;;17.80;99.90;;;;;;5097569;28;20058;-74
2023/08/12 00:54:00;;;;;;;1999.90;999.90;;;17.60;99.90;;;;;;5096174;28;20029;-74
2023/08/12 00:56:27;;;;;;;1999.90;999.90;;;17.60;99.90;;;;;;5097754;28;20456;-74
2023/08/12 00:58:53;;;;;;;1999.90;999.90;;;17.50;99.90;;;;;;5097682;28;20024;-74
2023/08/12 01:01:19;;;;;;;1999.90;999.90;;;17.50;99.90;;;;;;5097343;28;20840;-74
2023/08/12 01:03:45;;;;;;;1999.90;999.90;;;17.40;99.90;;;;;;5095416;28;20024;-74
2023/08/12 01:06:12;;;;;;;1999.90;999.90;;;17.40;99.90;;;;;;5096932;28;20040;-74
2023/08/12 01:08:38;;;;;;;1999.90;999.90;;;17.40;99.90;;;;;;5097609;28;20583;-74
2023/08/12 01:11:20;;;;;;;1999.90;999.90;;;17.40;99.90;;;;;;5096032;28;20119;-74
2023/08/12 01:13:52;;;;;;;1999.90;999.90;;;17.30;99.90;;;;;;5097652;28;20094;-74
2023/08/12 01:16:20;;;;;;;1999.90;999.90;;;17.30;99.90;;;;;;5095313;28;20079;-74
2023/08/12 01:18:46;;;;;;;1999.90;999.90;;;17.30;99.90;;;;;;5097345;28;20387;-74
2023/08/12 01:21:16;;;;;;;1999.90;999.90;;;17.20;99.90;;;;;;5097269;28;20071;-74
2023/08/12 01:23:42;;;;;;;1999.90;999.90;;;17.20;99.90;;;;;;5097171;28;20503;-74
2023/08/12 01:26:08;;;;;;;1999.90;999.90;;;17.20;99.90;;;;;;5096800;28;20043;-74
2023/08/12 01:28:33;;;;;;;1999.90;999.90;;;17.10;99.90;;;;;;5096916;28;20024;-74
2023/08/12 01:31:15;;;;;;;1999.90;999.90;;;17.10;99.90;;;;;;5097297;28;20398;-74
2023/08/12 01:34:17;;;;;;;1999.90;999.90;;;17.00;99.90;;;;;;5097284;28;20025;-75
2023/08/12 01:36:51;;;;;;;1999.90;999.90;;;17.00;99.90;;;;;;5013678;28;20042;-74
2023/08/12 01:39:19;;;;;;;1999.90;999.90;;;17.00;99.90;;;;;;5084701;28;20131;-74
2023/08/12 01:41:45;;;;;;;1999.90;999.90;;;17.00;99.90;;;;;;5095584;28;20066;-74
2023/08/12 01:44:10;;;;;;;1999.90;999.90;;;17.00;99.90;;;;;;5096717;28;20032;-74
2023/08/12 01:46:36;;;;;;;1999.90;999.90;;;17.00;99.90;;;;;;5096821;28;20120;-74
2023/08/12 01:49:04;;;;;;;1999.90;999.90;;;17.00;99.90;;;;;;5095157;28;20478;-74
2023/08/12 01:51:30;;;;;;;1999.90;999.90;;;17.00;99.90;;;;;;5095342;28;20166;-74
2023/08/12 01:53:55;;;;;;;1999.90;999.90;;;17.00;99.90;;;;;;5096817;28;20144;-74
2023/08/12 01:56:21;;;;;;;1999.90;999.90;;;17.00;99.90;;;;;;5096826;28;20555;-75
2023/08/12 01:58:47;;;;;;;1999.90;999.90;;;17.00;99.90;;;;;;5094931;28;20024;-74
2023/08/12 02:01:12;;;;;;;1999.90;999.90;;;17.10;99.90;;;;;;5096424;28;20039;-74
2023/08/12 02:03:41;;;;;;;1999.90;999.90;;;17.00;99.90;;;;;;5096852;28;20124;-74
2023/08/12 02:06:06;;;;;;;1999.90;999.90;;;17.10;99.90;;;;;;5096035;28;20853;-74
2023/08/12 02:08:32;;;;;;;1999.90;999.90;;;17.10;99.90;;;;;;5096822;28;20040;-74
2023/08/12 02:10:57;;;;;;;1999.90;999.90;;;17.10;99.90;;;;;;5096359;28;20050;-74
2023/08/12 02:13:23;;;;;;;1999.90;999.90;;;17.10;99.90;;;;;;5096247;28;20136;-74
2023/08/12 02:15:51;;;;;;;1999.90;999.90;;;17.20;99.90;;;;;;5094690;28;20032;-74
2023/08/12 02:18:17;;;;;;;1999.90;999.90;;;17.20;99.90;;;;;;5096116;28;20024;-74
2023/08/12 02:20:43;;;;;;;1999.90;999.90;;;17.20;99.90;;;;;;5096284;28;20058;-74
2023/08/12 02:23:08;;;;;;;1999.90;999.90;;;17.20;99.90;;;;;;5096281;28;20036;-74
2023/08/12 02:25:34;;;;;;;1999.90;999.90;;;17.20;99.90;;;;;;5094316;28;20082;-74
2023/08/12 02:27:59;;;;;;;1999.90;999.90;;;17.30;99.90;;;;;;5096518;28;20512;-74
2023/08/12 02:30:29;;;;;;;1999.90;999.90;;;17.30;99.90;;;;;;5095946;28;20445;-74
2023/08/12 02:32:54;;;;;;;1999.90;999.90;;;17.40;99.90;;;;;;5096326;28;20486;-74
2023/08/12 02:35:20;;;;;;;1999.90;999.90;;;17.40;99.90;;;;;;5125213;22;20094;-76
2023/08/12 02:37:48;;;;;;;1999.90;999.90;;;17.40;99.90;;;;;;5137093;27;20040;-75
2023/08/12 02:40:13;;;;;;;1999.90;999.90;;;17.40;99.90;;;;;;5137246;27;20035;-75
2023/08/12 02:42:39;;;;;;;1999.90;999.90;;;17.50;99.90;;;;;;5137089;27;20039;-75
2023/08/12 02:45:05;;;;;;;1999.90;999.90;;;17.50;99.90;;;;;;5136559;27;20531;-76
2023/08/12 02:47:31;;;;;;;1999.90;999.90;;;17.50;99.90;;;;;;5136896;27;20141;-75
2023/08/12 02:49:56;;;;;;;1999.90;999.90;;;17.50;99.90;;;;;;5136938;27;20027;-75
2023/08/12 02:52:22;;;;;;;1999.90;999.90;;;17.50;99.90;;;;;;5136674;27;20070;-75
2023/08/12 02:54:47;;;;;;;1999.90;999.90;;;17.60;99.90;;;;;;5136401;27;20031;-75
2023/08/12 02:57:13;;;;;;;1999.90;999.90;;;17.60;99.90;;;;;;5136545;27;20047;-75
2023/08/12 02:59:39;;;;;;;1999.90;999.90;;;17.60;99.90;;;;;;5136992;27;20032;-75
2023/08/12 03:02:04;;;;;;;1999.90;999.90;;;17.70;99.90;;;;;;5136509;27;20465;-75
2023/08/12 03:04:30;;;;;;;1999.90;999.90;;;17.70;99.90;;;;;;5134907;27;20032;-75
2023/08/12 03:06:55;;;;;;;1999.90;999.90;;;17.70;99.90;;;;;;5136341;27;20031;-75
2023/08/12 03:09:21;;;;;;;1999.90;999.90;;;17.80;99.90;;;;;;5136819;27;20027;-75
2023/08/12 03:11:46;;;;;;;1999.90;999.90;;;17.80;99.90;;;;;;5135946;27;20384;-75
2023/08/12 03:14:12;;;;;;;1999.90;999.90;;;17.80;99.90;;;;;;5136184;27;20035;-75
2023/08/12 03:16:38;;;;;;;1999.90;999.90;;;17.90;99.90;;;;;;5135031;27;20034;-75
2023/08/12 03:19:03;;;;;;;1999.90;999.90;;;17.90;99.90;;;;;;5136452;27;20042;-76
2023/08/12 03:21:29;;;;;;;1999.90;999.90;;;17.90;99.90;;;;;;5135013;27;20060;-75
2023/08/12 03:23:54;;;;;;;1999.90;999.90;;;17.90;99.90;;;;;;5136069;27;20109;-75
2023/08/12 03:26:20;;;;;;;1999.90;999.90;;;17.90;99.90;;;;;;5134496;27;20138;-75
2023/08/12 03:28:46;;;;;;;1999.90;999.90;;;18.00;99.90;;;;;;5136377;27;20483;-75
2023/08/12 03:31:11;;;;;;;1999.90;999.90;;;18.00;99.90;;;;;;5136360;27;20501;-75
2023/08/12 03:33:37;;;;;;;1999.90;999.90;;;18.00;99.90;;;;;;5136249;27;20031;-75
2023/08/12 03:36:02;;;;;;;1999.90;999.90;;;18.00;99.90;;;;;;5135480;27;20097;-75
2023/08/12 03:38:28;;;;;;;1999.90;999.90;;;18.00;99.90;;;;;;5134730;27;20487;-75
2023/08/12 03:40:53;;;;;;;1999.90;999.90;;;18.00;99.90;;;;;;5136251;27;20133;-75
2023/08/12 03:43:19;;;;;;;1999.90;999.90;;;18.00;99.90;;;;;;5135884;27;20484;-75
2023/08/12 03:45:45;;;;;;;1999.90;999.90;;;18.00;99.90;;;;;;5135684;27;20035;-75
2023/08/12 03:48:11;;;;;;;1999.90;999.90;;;18.00;99.90;;;;;;5136159;27;20062;-75
2023/08/12 03:50:37;;;;;;;1999.90;999.90;;;18.00;99.90;;;;;;5135887;27;20085;-75
2023/08/12 03:53:04;;;;;;;1999.90;999.90;;;18.00;99.90;;;;;;5136059;27;20043;-76
2023/08/12 03:55:33;;;;;;;1999.90;999.90;;;18.00;99.90;;;;;;5135800;27;20511;-75
2023/08/12 03:57:59;;;;;;;1999.90;999.90;;;18.10;99.90;;;;;;5136071;27;20038;-76
2023/08/12 04:00:26;;;;;;;1999.90;999.90;;;18.10;99.90;;;;;;5135751;27;20550;-75
2023/08/12 04:02:51;;;;;;;1999.90;999.90;;;18.10;99.90;;;;;;5135864;27;20563;-76
2023/08/12 04:05:17;;;;;;;1999.90;999.90;;;18.10;99.90;;;;;;5135487;27;20035;-75
2023/08/12 04:07:42;;;;;;;1999.90;999.90;;;18.10;99.90;;;;;;5135738;27;20067;-76
2023/08/12 04:10:09;;;;;;;1999.90;999.90;;;18.10;99.90;;;;;;5135771;27;20114;-75
2023/08/12 04:12:35;;;;;;;1999.90;999.90;;;18.10;99.90;;;;;;5135813;27;20043;-75
2023/08/12 04:15:04;;;;;;;1999.90;999.90;;;18.20;99.90;;;;;;5133715;27;20519;-76
2023/08/12 04:17:29;;;;;;;1999.90;999.90;;;18.20;99.90;;;;;;5135534;27;20024;-76
2023/08/12 04:19:55;;;;;;;1999.90;999.90;;;18.20;99.90;;;;;;5134139;27;20024;-75
2023/08/12 04:22:20;;;;;;;1999.90;999.90;;;18.20;99.90;;;;;;5135215;27;20392;-75
2023/08/12 04:24:46;;;;;;;1999.90;999.90;;;18.20;99.90;;;;;;5137936;27;20110;-76
2023/08/12 04:27:11;;;;;;;1999.90;999.90;;;18.20;99.90;;;;;;5138854;27;20042;-76
2023/08/12 04:29:37;;;;;;;1999.90;999.90;;;18.20;99.90;;;;;;5139193;27;20034;-76
2023/08/12 04:32:02;;;;;;;1999.90;999.90;;;18.20;99.90;;;;;;5139004;27;20067;-76
2023/08/12 04:34:28;;;;;;;1999.90;999.90;;;18.20;99.90;;;;;;5137479;27;20024;-76
2023/08/12 04:36:53;;;;;;;1999.90;999.90;;;18.20;99.90;;;;;;5138254;27;20518;-75
2023/08/12 04:39:19;;;;;;;1999.90;999.90;;;18.20;99.90;;;;;;5138738;27;20088;-76
2023/08/12 04:41:44;;;;;;;1999.90;999.90;;;18.30;99.90;;;;;;5139308;27;20080;-76
2023/08/12 04:44:10;;;;;;;1999.90;999.90;;;18.30;99.90;;;;;;5138761;27;20045;-76
2023/08/12 04:46:35;;;;;;;1999.90;999.90;;;18.30;99.90;;;;;;5138765;27;20052;-75
2023/08/12 04:49:01;;;;;;;1999.90;999.90;;;18.30;99.90;;;;;;5139199;27;20072;-75
2023/08/12 04:51:27;;;;;;;1999.90;999.90;;;18.40;99.90;;;;;;5138704;27;20076;-76
2023/08/12 04:53:52;;;;;;;1999.90;999.90;;;18.40;99.90;;;;;;5138909;27;20039;-75
2023/08/12 04:56:18;;;;;;;1999.90;999.90;;;18.50;99.90;;;;;;5138441;27;20554;-75
2023/08/12 04:58:43;;;;;;;1999.90;999.90;;;18.40;99.90;;;;;;5138598;27;20126;-76
2023/08/12 05:01:09;;;;;;;1999.90;999.90;;;18.50;99.90;;;;;;5137097;27;20067;-76
2023/08/12 05:03:34;;;;;;;1999.90;999.90;;;18.50;99.90;;;;;;5138809;27;20028;-75
2023/08/12 05:06:00;;;;;;;1999.90;999.90;;;18.60;99.90;;;;;;5138133;27;20110;-76
2023/08/12 05:08:25;;;;;;;1999.90;999.90;;;18.60;99.90;;;;;;5138633;27;20039;-76
2023/08/12 05:10:51;;;;;;;1999.90;999.90;;;18.70;99.90;;;;;;5138622;27;20047;-75
2023/08/12 05:13:17;;;;;;;1999.90;999.90;;;18.70;99.90;;;;;;5138560;27;20024;-76
2023/08/12 05:15:47;;;;;;;1999.90;999.90;;;18.80;99.90;;;;;;5136432;27;20039;-76
2023/08/12 05:18:13;;;;;;;1999.90;999.90;;;18.90;99.90;;;;;;5138316;27;20063;-76
2023/08/12 05:20:40;;;;;;;1999.90;999.90;;;19.00;99.90;;;;;;5138367;27;20110;-76
2023/08/12 05:23:06;;;;;;;1999.90;999.90;;;19.00;99.90;;;;;;5138179;27;20058;-76
2023/08/12 05:25:31;;;;;;;1999.90;999.90;;;19.10;99.90;;;;;;5136273;27;20046;-75
2023/08/12 05:27:57;;;;;;;1999.90;999.90;;;19.10;99.90;;;;;;5138495;27;20046;-75
2023/08/12 05:30:23;;;;;;;1999.90;999.90;;;19.10;99.90;;;;;;5136900;27;20035;-76
2023/08/12 05:32:48;;;;;;;1999.90;999.90;;;19.20;99.90;;;;;;5137969;27;20046;-76
2023/08/12 05:35:14;;;;;;;1999.90;999.90;;;19.20;99.90;;;;;;5136610;27;20551;-75
2023/08/12 05:37:39;;;;;;;1999.90;999.90;;;19.30;99.90;;;;;;5138166;27;20081;-75
2023/08/12 05:40:08;;;;;;;1999.90;999.90;;;19.30;99.90;;;;;;5136481;27;20392;-75
2023/08/12 05:42:34;;;;;;;1999.90;999.90;;;19.40;99.90;;;;;;5137920;27;20066;-76
2023/08/12 05:44:59;;;;;;;1999.90;999.90;;;19.50;99.90;;;;;;5137446;27;20027;-76
2023/08/12 05:47:25;;;;;;;1999.90;999.90;;;19.60;99.90;;;;;;5136707;27;20036;-76
2023/08/12 05:49:50;;;;;;;1999.90;999.90;;;19.70;99.90;;;;;;5137735;27;20537;-76
2023/08/12 05:52:16;;;;;;;1999.90;999.90;;;19.70;99.90;;;;;;5138014;27;20089;-76
2023/08/12 05:54:42;;;;;;;1999.90;999.90;;;19.70;99.90;;;;;;5137995;27;20119;-76
2023/08/12 05:57:07;;;;;;;1999.90;999.90;;;19.80;99.90;;;;;;5136072;27;20126;-75
2023/08/12 05:59:32;;;;;;;1999.90;999.90;;;19.90;99.90;;;;;;5137606;27;20032;-75
2023/08/12 06:01:58;;;;;;;1999.90;999.90;;;19.80;99.90;;;;;;5137884;27;20074;-75
2023/08/12 06:04:24;;;;;;;1999.90;999.90;;;19.90;99.90;;;;;;5135801;27;20424;-76
2023/08/12 06:06:50;;;;;;;1999.90;999.90;;;19.80;99.90;;;;;;5137549;27;20031;-76
2023/08/12 06:09:15;;;;;;;1999.90;999.90;;;19.90;99.90;;;;;;5137915;27;20043;-76
2023/08/12 06:11:41;;;;;;;1999.90;999.90;;;20.10;99.90;;;;;;5137686;27;20039;-76
2023/08/12 06:14:07;;;;;;;1999.90;999.90;;;20.10;99.90;;;;;;5135818;27;20028;-76
2023/08/12 06:16:33;;;;;;;1999.90;999.90;;;20.20;99.90;;;;;;5135796;27;20480;-76
2023/08/12 06:18:58;;;;;;;1999.90;999.90;;;20.30;99.90;;;;;;5136025;27;20062;-75
2023/08/12 06:21:24;;;;;;;1999.90;999.90;;;20.40;99.90;;;;;;5137641;27;20392;-76
2023/08/12 06:23:49;;;;;;;1999.90;999.90;;;20.50;99.90;;;;;;5137286;27;20036;-76
2023/08/12 06:26:15;;;;;;;1999.90;999.90;;;20.60;99.90;;;;;;5136699;27;20084;-76
2023/08/12 06:28:41;;;;;;;1999.90;999.90;;;20.70;99.90;;;;;;5137351;27;20085;-76
2023/08/12 06:31:06;;;;;;;1999.90;999.90;;;20.80;99.90;;;;;;5137141;27;20040;-76
2023/08/12 06:33:32;;;;;;;1999.90;999.90;;;20.90;99.90;;;;;;5137054;27;20517;-76
2023/08/12 06:35:57;;;;;;;1999.90;999.90;;;20.90;99.90;;;;;;5136479;27;20067;-76
2023/08/12 06:38:23;;;;;;;1999.90;999.90;;;21.00;99.90;;;;;;5137120;27;20038;-76
2023/08/12 06:40:48;;;;;;;1999.90;999.90;;;21.10;99.90;;;;;;5137027;27;20038;-76
2023/08/12 06:43:14;;;;;;;1999.90;999.90;;;21.20;99.90;;;;;;5137020;27;20034;-76
2023/08/12 06:45:39;;;;;;;1999.90;999.90;;;21.30;99.90;;;;;;5136736;27;20039;-76
2023/08/12 06:48:05;;;;;;;1999.90;999.90;;;21.50;99.90;;;;;;5135885;27;20071;-77
2023/08/12 06:50:33;;;;;;;1999.90;999.90;;;21.60;99.90;;;;;;5135318;27;20164;-76
2023/08/12 06:52:58;;;;;;;1999.90;999.90;;;21.70;99.90;;;;;;5137014;27;20028;-75
2023/08/12 06:55:24;;;;;;;1999.90;999.90;;;21.70;99.90;;;;;;5136490;27;20028;-75
2023/08/12 06:57:49;;;;;;;1999.90;999.90;;;21.70;99.90;;;;;;5136651;27;20036;-76
2023/08/12 07:00:15;;;;;;;1999.90;999.90;;;21.70;99.90;;;;;;5135253;27;20063;-75
2023/08/12 07:02:42;;;;;;;1999.90;999.90;;;21.70;99.90;;;;;;5136560;27;20034;-75
2023/08/12 07:05:08;;;;;;;1999.90;999.90;;;21.60;99.90;;;;;;5136203;27;20035;-75
2023/08/12 07:07:33;;;;;;;1999.90;999.90;;;21.60;99.90;;;;;;5135187;27;20117;-75
2023/08/12 07:09:59;;;;;;;1999.90;999.90;;;21.80;99.90;;;;;;5139699;27;20075;-75
2023/08/12 07:12:24;;;;;;;1999.90;999.90;;;22.00;99.90;;;;;;5157306;27;20496;-75
2023/08/12 07:14:50;;;;;;;1999.90;999.90;;;22.00;99.90;;;;;;5156670;27;20499;-75
2023/08/12 07:17:15;;;;;;;1999.90;999.90;;;22.10;99.90;;;;;;5157571;27;20039;-76
2023/08/12 07:19:41;;;;;;;1999.90;999.90;;;22.50;99.90;;;;;;5155575;27;20042;-75
2023/08/12 07:22:06;;;;;;;1999.90;999.90;;;22.90;99.90;;;;;;5157661;27;20031;-76
2023/08/12 07:24:33;;;;;;;1999.90;999.90;;;23.20;99.90;;;;;;5156476;27;20526;-77
2023/08/12 07:26:58;;;;;;;1999.90;999.90;;;23.30;99.90;;;;;;5157312;27;20042;-77
2023/08/12 07:29:24;;;;;;;1999.90;999.90;;;23.60;99.90;;;;;;5155745;27;20031;-77
2023/08/12 07:31:49;;;;;;;1999.90;999.90;;;23.60;99.90;;;;;;5139385;27;20044;-77
2023/08/12 07:34:15;;;;;;;1999.90;999.90;;;24.00;99.90;;;;;;5136272;27;20475;-78
2023/08/12 07:36:40;;;;;;;1999.90;999.90;;;24.30;99.90;;;;;;5134141;27;20047;-81
2023/08/12 07:39:07;;;;;;;1999.90;999.90;;;24.40;99.90;;;;;;5134997;27;20035;-78
2023/08/12 07:41:33;;;;;;;1999.90;999.90;;;24.70;99.90;;;;;;5136112;27;20036;-76
2023/08/12 07:43:58;;;;;;;1999.90;999.90;;;24.80;99.90;;;;;;5135870;27;20374;-77
2023/08/12 07:46:24;;;;;;;1999.90;999.90;;;24.80;99.90;;;;;;5136013;27;20082;-79
2023/08/12 07:48:49;;;;;;;1999.90;999.90;;;24.80;99.90;;;;;;5134757;27;20036;-78
2023/08/12 07:51:15;;;;;;;1999.90;999.90;;;25.10;99.90;;;;;;5136650;27;20122;-82
2023/08/12 07:53:40;;;;;;;1999.90;999.90;;;25.30;99.90;;;;;;5135266;27;20023;-77
2023/08/12 07:56:06;;;;;;;1999.90;999.90;;;25.30;99.90;;;;;;5135957;27;20036;-75
2023/08/12 07:58:32;;;;;;;1999.90;999.90;;;25.50;99.90;;;;;;5135575;27;20031;-76
2023/08/12 08:00:57;;;;;;;1999.90;999.90;;;25.60;99.90;;;;;;5135880;27;20023;-74
2023/08/12 08:03:23;;;;;;;1999.90;999.90;;;25.80;99.90;;;;;;5135985;27;20119;-77
2023/08/12 08:05:48;;;;;;;1999.90;999.90;;;25.60;99.90;;;;;;5135569;27;20118;-74
2023/08/12 08:08:14;;;;;;;1999.90;999.90;;;25.40;99.90;;;;;;5135679;27;20430;-74
2023/08/12 08:10:39;;;;;;;1999.90;999.90;;;25.20;99.90;;;;;;5135753;27;20042;-74
2023/08/12 08:13:05;;;;;;;1999.90;999.90;;;25.00;99.90;;;;;;5136106;27;20450;-78
2023/08/12 08:15:31;;;;;;;1999.90;999.90;;;24.80;99.90;;;;;;5134080;27;20388;-77
2023/08/12 08:17:56;;;;;;;1999.90;999.90;;;24.60;99.90;;;;;;5136108;27;20428;-75
2023/08/12 08:20:22;;;;;;;1999.90;999.90;;;24.60;99.90;;;;;;5135696;27;20075;-75
2023/08/12 08:22:47;;;;;;;1999.90;999.90;;;24.30;99.90;;;;;;5136014;27;20158;-76
2023/08/12 08:25:13;;;;;;;1999.90;999.90;;;24.30;99.90;;;;;;5135296;27;20388;-75
2023/08/12 08:27:39;;;;;;;1999.90;999.90;;;24.20;99.90;;;;;;5136224;27;20689;-74
2023/08/12 08:30:08;;;;;;;1999.90;999.90;;;24.20;99.90;;;;;;5135987;27;20489;-76
2023/08/12 08:32:34;;;;;;;1999.90;999.90;;;24.20;99.90;;;;;;5130629;27;20048;-76
2023/08/12 08:34:59;;;;;;;1999.90;999.90;;;24.20;99.90;;;;;;5114988;27;20531;-76
2023/08/12 08:37:25;;;;;;;1999.90;999.90;;;24.40;99.90;;;;;;5113827;27;20040;-75
2023/08/12 08:39:51;;;;;;;1999.90;999.90;;;24.50;99.90;;;;;;5113568;27;20043;-75
2023/08/12 08:42:20;;;;;;;1999.90;999.90;;;24.60;99.90;;;;;;5114572;28;20032;-75
2023/08/12 08:44:47;;;;;;;1999.90;999.90;;;24.70;99.90;;;;;;5113841;28;20749;-82
2023/08/12 08:47:16;;;;;;;1999.90;999.90;;;24.70;99.90;;;;;;5114285;27;20064;-76
2023/08/12 08:49:42;;;;;;;1999.90;999.90;;;24.90;99.90;;;;;;5115494;28;20024;-74
2023/08/12 08:52:08;;;;;;;1999.90;999.90;;;25.10;99.90;;;;;;5114448;27;20044;-75
2023/08/12 08:54:34;;;;;;;1999.90;999.90;;;25.30;99.90;;;;;;5114903;28;20111;-75
2023/08/12 08:57:00;;;;;;;1999.90;999.90;;;25.30;99.90;;;;;;5114738;28;20060;-73
2023/08/12 08:59:25;;;;;;;1999.90;999.90;;;25.60;99.90;;;;;;5115191;28;20052;-73
2023/08/12 09:01:53;;;;;;;1999.90;999.90;;;25.70;99.90;;;;;;5114766;28;20036;-73
2023/08/12 09:04:21;;;;;;;1999.90;999.90;;;25.80;99.90;;;;;;5114178;28;20502;-73
2023/08/12 09:06:49;;;;;;;1999.90;999.90;;;25.70;99.90;;;;;;5113153;28;20490;-72
2023/08/12 09:09:18;;;;;;;1999.90;999.90;;;25.90;99.90;;;;;;5113106;27;20474;-72
2023/08/12 09:11:45;;;;;;;1999.90;999.90;;;25.80;99.90;;;;;;5116866;28;20527;-72
2023/08/12 09:14:11;;;;;;;1999.90;999.90;;;26.00;99.90;;;;;;5116307;27;20529;-72
2023/08/12 09:16:36;;;;;;;1999.90;999.90;;;26.00;99.90;;;;;;5117669;28;20055;-72
2023/08/12 09:19:03;;;;;;;1999.90;999.90;;;26.10;99.90;;;;;;5116417;27;20051;-72
2023/08/12 09:21:28;;;;;;;1999.90;999.90;;;26.40;99.90;;;;;;5116531;28;20036;-72
2023/08/12 09:23:55;;;;;;;1999.90;999.90;;;26.60;99.90;;;;;;5139100;27;20035;-74
2023/08/12 09:26:21;;;;;;;1999.90;999.90;;;26.60;99.90;;;;;;5158318;27;20453;-72
2023/08/12 09:28:47;;;;;;;1999.90;999.90;;;26.90;99.90;;;;;;5158418;27;20031;-74
2023/08/12 09:31:24;;;;;;;1999.90;999.90;;;27.10;99.90;;;;;;5158494;27;20525;-76
2023/08/12 09:33:50;;;;;;;1999.90;999.90;;;27.20;99.90;;;;;;5156926;27;20283;-74
2023/08/12 09:36:16;;;;;;;1999.90;999.90;;;27.20;99.90;;;;;;5118916;27;20064;-74
2023/08/12 09:38:42;;;;;;;1999.90;999.90;;;27.40;99.90;;;;;;5117047;28;20028;-74
2023/08/12 09:41:08;;;;;;;1999.90;999.90;;;27.40;99.90;;;;;;5117558;27;20466;-74
2023/08/12 09:43:33;;;;;;;1999.90;999.90;;;27.60;99.90;;;;;;5126966;27;20040;-74
2023/08/12 09:45:59;;;;;;;1999.90;999.90;;;27.80;99.90;;;;;;5116356;27;20043;-74
2023/08/12 09:48:25;;;;;;;1999.90;999.90;;;27.90;99.90;;;;;;5117133;28;20389;-73
2023/08/12 09:50:52;;;;;;;1999.90;999.90;;;27.70;99.90;;;;;;5135081;27;20046;-73
2023/08/12 09:53:18;;;;;;;1999.90;999.90;;;27.60;99.90;;;;;;5121747;27;20044;-74
2023/08/12 09:55:47;;;;;;;1999.90;999.90;;;27.60;99.90;;;;;;5120173;27;20083;-75
2023/08/12 09:58:17;;;;;;;1999.90;999.90;;;27.60;99.90;;;;;;5131857;27;20036;-75
2023/08/12 10:00:43;;;;;;;1999.90;999.90;;;27.80;99.90;;;;;;5116979;28;20028;-75
2023/08/12 10:03:10;;;;;;;1999.90;999.90;;;27.90;99.90;;;;;;5118617;27;20086;-75
2023/08/12 10:05:37;;;;;;;1999.90;999.90;;;27.90;99.90;;;;;;5137417;27;20035;-76
2023/08/12 10:08:04;;;;;;;1999.90;999.90;;;27.90;99.90;;;;;;5135702;27;20036;-74
2023/08/12 10:10:32;;;;;;;1999.90;999.90;;;28.20;99.90;;;;;;5131756;27;20042;-80
2023/08/12 10:12:59;;;;;;;1999.90;999.90;;;28.30;99.90;;;;;;5138480;27;20104;-80
2023/08/12 10:15:25;;;;;;;1999.90;999.90;;;28.30;99.90;;;;;;5136959;27;20529;-78
2023/08/12 10:17:52;;;;;;;1999.90;999.90;;;29.10;99.90;;;;;;5137072;27;20035;-75
2023/08/12 10:20:22;;;;;;;1999.90;999.90;;;29.30;99.90;;;;;;5139089;27;20027;-76
2023/08/12 10:22:48;;;;;;;1999.90;999.90;;;30.00;99.90;;;;;;5136868;27;20563;-76
2023/08/12 10:25:15;;;;;;;1999.90;999.90;;;30.20;99.90;;;;;;5137174;27;20464;-76
2023/08/12 10:27:41;;;;;;;1999.90;999.90;;;30.40;99.90;;;;;;5137673;27;20110;-75
2023/08/12 10:30:07;;;;;;;1999.90;999.90;;;30.50;99.90;;;;;;5132669;27;20070;-76
2023/08/12 10:32:34;;;;;;;1999.90;999.90;;;30.50;99.90;;;;;;5128273;27;20079;-77
2023/08/12 10:35:00;;;;;;;1999.90;999.90;;;30.50;99.90;;;;;;5131886;27;20040;-76
2023/08/12 10:37:26;;;;;;;1999.90;999.90;;;30.30;99.90;;;;;;5135141;27;20062;-75
2023/08/12 10:39:55;;;;;;;1999.90;999.90;;;30.30;99.90;;;;;;5135988;27;20031;-76
2023/08/12 10:42:39;;;;;;;1999.90;999.90;;;29.70;99.90;;;;;;5123870;27;20040;-78
2023/08/12 10:45:08;;;;;;;1999.90;999.90;;;29.10;99.90;;;;;;5119760;27;20036;-77
2023/08/12 10:47:37;;;;;;;1999.90;999.90;;;29.50;99.90;;;;;;5123560;27;20080;-78
2023/08/12 10:50:04;;;;;;;1999.90;999.90;;;29.60;99.90;;;;;;5131144;27;20070;-76
2023/08/12 10:52:33;;;;;;;1999.90;999.90;;;29.80;99.90;;;;;;5137501;27;20036;-77
2023/08/12 10:55:18;;;;;;;1999.90;999.90;;;29.60;99.90;;;;;;5143261;27;20023;-77
2023/08/12 10:57:44;;;;;;;1999.90;999.90;;;29.70;99.90;;;;;;5139294;27;20119;-77
2023/08/12 11:00:23;;;;;;;1999.90;999.90;;;30.00;99.90;;;;;;5135200;27;20110;-77
2023/08/12 11:02:51;;;;;;;1999.90;999.90;;;30.00;99.90;;;;;;5133720;27;20042;-77
2023/08/12 11:05:19;;;;;;;1999.90;999.90;;;30.20;99.90;;;;;;5136736;27;20035;-78
2023/08/12 11:07:49;;;;;;;1999.90;999.90;;;30.30;99.90;;;;;;5132657;27;20132;-78
2023/08/12 11:10:25;;;;;;;1999.90;999.90;;;30.10;99.90;;;;;;5137318;27;20530;-79
2023/08/12 11:12:57;;;;;;;1999.90;999.90;;;30.10;99.90;;;;;;5141425;27;20071;-80
2023/08/12 11:15:36;;;;;;;1999.90;999.90;;;30.30;99.90;;;;;;5132128;27;20169;-80
2023/08/12 11:18:13;;;;;;;1999.90;999.90;;;30.50;99.90;;;;;;5137357;27;20042;-78
2023/08/12 11:20:40;;;;;;;1999.90;999.90;;;30.60;99.20;;;;;;5141751;27;20039;-78
2023/08/12 11:23:07;;;;;;;1999.90;999.90;;;30.50;97.50;;;;;;5130718;27;20040;-79
2023/08/12 11:25:34;;;;;;;1999.90;999.90;;;30.30;98.90;;;;;;5144223;27;20043;-81
2023/08/12 11:28:00;;;;;;;1999.90;999.90;;;30.10;98.00;;;;;;5138602;27;20032;-77
2023/08/12 11:30:27;;;;;;;1999.90;999.90;;;30.20;97.50;;;;;;5147701;27;20042;-77
2023/08/12 11:32:54;;;;;;;1999.90;999.90;;;30.90;97.10;;;;;;5138023;27;20039;-76
2023/08/12 11:35:21;;;;;;;1999.90;999.90;;;31.60;96.80;;;;;;5123662;27;20038;-78
2023/08/12 11:37:48;;;;;;;1999.90;999.90;;;31.90;96.00;;;;;;5138252;27;20089;-76
2023/08/12 11:40:16;;;;;;;1999.90;999.90;;;32.00;96.30;;;;;;5137520;27;20038;-77
2023/08/12 11:42:44;;;;;;;1999.90;999.90;;;32.60;94.70;;;;;;5137846;27;20028;-77
2023/08/12 11:45:11;;;;;;;1999.90;999.90;;;33.10;93.00;;;;;;5120455;27;20457;-77
2023/08/12 11:47:39;;;;;;;1999.90;999.90;;;33.40;91.90;;;;;;5119691;27;20044;-79
2023/08/12 11:50:06;;;;;;;1999.90;999.90;;;33.80;91.90;;;;;;5126298;27;20036;-79
2023/08/12 11:52:32;;;;;;;1999.90;999.90;;;33.40;92.40;;;;;;5119986;27;20424;-79
2023/08/12 11:54:58;;;;;;;1999.90;999.90;;;33.10;91.60;;;;;;5127781;27;20736;-79